createdAt,value
2023-04-14T00:00:39.894Z,9.71
2023-04-14T00:03:22.688Z,9.70
2023-04-14T00:05:54.647Z,9.77
2023-04-14T00:08:26.386Z,9.74
2023-04-14T00:10:58.191Z,9.72
2023-04-14T00:13:31.527Z,9.78
2023-04-14T00:16:03.481Z,9.77
2023-04-14T00:18:35.281Z,9.66
2023-04-14T00:21:07.301Z,9.71
2023-04-14T00:23:39.062Z,9.75
2023-04-14T00:26:11.189Z,9.73
2023-04-14T00:28:43.413Z,9.64
2023-04-14T00:31:15.760Z,9.59
2023-04-14T00:33:47.568Z,9.59
2023-04-14T00:36:19.296Z,9.58
2023-04-14T00:38:51.020Z,9.63
2023-04-14T00:41:24.867Z,9.73
2023-04-14T00:43:59.033Z,9.73
2023-04-14T00:46:31.338Z,9.68
2023-04-14T00:49:03.500Z,9.76
2023-04-14T00:51:36.996Z,9.82
2023-04-14T00:54:10.637Z,9.88
2023-04-14T00:56:42.810Z,9.82
2023-04-14T00:59:15.678Z,9.82
2023-04-14T01:01:47.587Z,9.71
2023-04-14T01:04:21.071Z,9.75
2023-04-14T01:06:54.181Z,9.78
2023-04-14T01:09:26.301Z,9.81
2023-04-14T01:12:14.807Z,9.75
2023-04-14T01:14:53.328Z,9.72
2023-04-14T01:17:33.879Z,9.80
2023-04-14T01:20:14.529Z,9.70
2023-04-14T01:22:51.874Z,9.69
2023-04-14T01:25:50.336Z,9.67
2023-04-14T01:28:43.950Z,9.73
2023-04-14T01:31:25.044Z,9.79
2023-04-14T01:34:04.846Z,9.80
2023-04-14T01:36:42.394Z,9.76
2023-04-14T01:39:19.868Z,9.87
2023-04-14T01:41:56.617Z,9.92
2023-04-14T01:44:30.647Z,9.91
2023-04-14T01:47:05.514Z,9.86
2023-04-14T01:49:40.285Z,9.90
2023-04-14T01:52:14.327Z,9.91
2023-04-14T01:54:48.735Z,9.95
2023-04-14T01:57:22.950Z,9.92
2023-04-14T01:59:57.986Z,9.87
2023-04-14T02:02:30.527Z,9.90
2023-04-14T02:05:04.236Z,9.94
2023-04-14T02:07:37.691Z,9.88
2023-04-14T02:10:13.102Z,9.90
2023-04-14T02:12:51.508Z,9.87
2023-04-14T02:15:25.829Z,9.91
2023-04-14T02:17:58.877Z,9.88
2023-04-14T02:20:31.283Z,9.91
2023-04-14T02:23:03.243Z,9.90
2023-04-14T02:25:38.259Z,9.85
2023-04-14T02:28:17.010Z,9.88
2023-04-14T02:30:54.497Z,9.84
2023-04-14T02:33:30.736Z,9.88
2023-04-14T02:36:07.328Z,9.94
2023-04-14T02:38:46.658Z,9.99
2023-04-14T02:41:24.547Z,9.93
2023-04-14T02:44:06.314Z,9.83
2023-04-14T02:46:43.177Z,9.81
2023-04-14T02:49:17.457Z,9.83
2023-04-14T02:51:51.359Z,9.88
2023-04-14T02:54:24.412Z,9.85
2023-04-14T02:56:56.869Z,9.86
2023-04-14T02:59:30.426Z,9.85
2023-04-14T03:02:06.778Z,9.96
2023-04-14T03:04:42.267Z,9.93
2023-04-14T03:07:22.726Z,9.83
2023-04-14T03:09:55.788Z,9.85
2023-04-14T03:12:29.302Z,9.92
2023-04-14T03:15:03.212Z,9.91
2023-04-14T03:17:37.114Z,9.96
2023-04-14T03:20:13.042Z,9.97
2023-04-14T03:22:47.190Z,10.01
2023-04-14T03:25:19.383Z,9.95
2023-04-14T03:27:55.354Z,9.88
2023-04-14T03:30:30.547Z,9.83
2023-04-14T03:33:10.604Z,9.78
2023-04-14T03:35:43.541Z,9.84
2023-04-14T03:38:17.771Z,9.86
2023-04-14T03:40:51.420Z,9.82
2023-04-14T03:43:27.335Z,9.82
2023-04-14T03:46:06.263Z,9.90
2023-04-14T03:48:42.543Z,9.96
2023-04-14T03:51:17.391Z,10.01
2023-04-14T03:53:51.937Z,10.06
2023-04-14T03:56:25.647Z,10.09
2023-04-14T03:58:59.044Z,10.04
2023-04-14T04:01:32.346Z,10.00
2023-04-14T04:04:06.961Z,9.99
2023-04-14T04:06:40.875Z,10.01
2023-04-14T04:09:15.851Z,10.01
2023-04-14T04:11:50.500Z,10.00
2023-04-14T04:14:24.672Z,10.00
2023-04-14T04:17:00.537Z,10.02
2023-04-14T04:19:35.266Z,9.95
2023-04-14T04:22:09.000Z,10.01
2023-04-14T04:24:42.450Z,9.99
2023-04-14T04:27:27.058Z,10.01
2023-04-14T04:30:01.336Z,9.98
2023-04-14T04:32:36.784Z,9.98
2023-04-14T04:35:11.595Z,9.90
2023-04-14T04:37:46.239Z,9.89
2023-04-14T04:40:16.713Z,9.96
2023-04-14T04:42:48.664Z,9.98
2023-04-14T04:45:44.608Z,9.97
2023-04-14T04:48:16.965Z,9.96
2023-04-14T04:50:49.166Z,10.00
2023-04-14T04:53:21.187Z,10.00
2023-04-14T04:55:52.968Z,9.98
2023-04-14T04:58:25.266Z,10.01
2023-04-14T05:00:57.035Z,10.00
2023-04-14T05:03:28.999Z,9.97
2023-04-14T05:06:02.676Z,9.95
2023-04-14T05:08:34.800Z,9.99
2023-04-14T05:11:07.506Z,9.98
2023-04-14T05:13:38.059Z,9.95
2023-04-14T05:16:13.711Z,9.95
2023-04-14T05:18:45.856Z,10.06
2023-04-14T05:21:17.801Z,10.07
2023-04-14T05:23:50.287Z,10.07
2023-04-14T05:28:58.286Z,10.04
2023-04-14T05:31:30.443Z,10.04
2023-04-14T05:34:02.793Z,10.02
2023-04-14T05:36:34.910Z,9.96
2023-04-14T05:39:06.625Z,9.96
2023-04-14T05:41:38.835Z,10.02
2023-04-14T05:44:11.204Z,10.04
2023-04-14T05:46:42.955Z,10.04
2023-04-14T05:49:14.747Z,10.11
2023-04-14T05:51:46.523Z,10.15
2023-04-14T05:54:18.296Z,10.20
2023-04-14T05:56:50.135Z,10.18
2023-04-14T05:59:22.034Z,10.14
2023-04-14T06:01:53.963Z,10.05
2023-04-14T06:04:26.060Z,10.08
2023-04-14T06:06:58.949Z,10.09
2023-04-14T06:09:31.643Z,10.16
2023-04-14T06:12:03.384Z,10.06
2023-04-14T06:14:36.600Z,10.04
2023-04-14T06:17:08.388Z,9.96
2023-04-14T06:19:40.446Z,9.90
2023-04-14T06:22:16.707Z,9.92
2023-04-14T06:24:48.495Z,10.00
2023-04-14T06:27:20.333Z,10.08
2023-04-14T06:29:52.848Z,9.98
2023-04-14T06:32:24.621Z,10.03
2023-04-14T06:34:57.317Z,9.98
2023-04-14T06:37:29.046Z,10.00
2023-04-14T06:40:00.909Z,10.00
2023-04-14T06:42:32.703Z,10.10
2023-04-14T06:45:05.190Z,10.10
2023-04-14T06:47:37.219Z,10.12
2023-04-14T06:50:10.506Z,10.14
2023-04-14T06:52:42.290Z,10.15
2023-04-14T06:55:14.524Z,10.22
2023-04-14T06:57:46.333Z,10.26
2023-04-14T07:00:19.491Z,10.30
2023-04-14T07:02:53.794Z,10.25
2023-04-14T07:05:26.360Z,10.25
2023-04-14T07:07:58.231Z,10.32
2023-04-14T07:10:30.246Z,10.39
2023-04-14T07:13:02.205Z,10.40
2023-04-14T07:15:34.224Z,10.28
2023-04-14T07:18:06.542Z,10.19
2023-04-14T07:20:38.392Z,10.27
2023-04-14T07:23:10.451Z,10.30
2023-04-14T07:25:42.607Z,10.32
2023-04-14T07:28:14.556Z,10.34
2023-04-14T07:30:46.456Z,10.42
2023-04-14T07:33:19.944Z,10.50
2023-04-14T07:36:02.001Z,10.52
2023-04-14T07:38:35.713Z,10.61
2023-04-14T07:41:08.369Z,10.64
2023-04-14T07:43:42.405Z,10.66
2023-04-14T07:46:14.312Z,10.70
2023-04-14T07:48:46.634Z,10.66
2023-04-14T07:51:18.747Z,10.70
2023-04-14T07:53:52.928Z,10.75
2023-04-14T07:56:24.837Z,10.74
2023-04-14T07:58:56.618Z,10.81
2023-04-14T08:01:28.519Z,10.79
2023-04-14T08:04:00.680Z,10.84
2023-04-14T08:06:32.872Z,10.90
2023-04-14T08:09:04.792Z,10.99
2023-04-14T08:11:36.764Z,11.06
2023-04-14T08:14:08.617Z,11.11
2023-04-14T08:16:40.451Z,11.18
2023-04-14T08:19:12.820Z,11.19
2023-04-14T08:21:44.968Z,11.25
2023-04-14T08:24:16.752Z,11.20
2023-04-14T08:26:48.604Z,11.20
2023-04-14T08:29:21.430Z,11.33
2023-04-14T08:31:53.752Z,11.44
2023-04-14T08:34:28.585Z,11.50
2023-04-14T08:37:01.656Z,11.39
2023-04-14T08:39:33.641Z,11.33
2023-04-14T08:42:06.389Z,11.43
2023-04-14T08:44:38.255Z,11.39
2023-04-14T08:47:10.339Z,11.46
2023-04-14T08:49:46.859Z,11.49
2023-04-14T08:52:23.180Z,11.48
2023-04-14T08:54:58.032Z,11.47
2023-04-14T08:57:32.374Z,11.52
2023-04-14T09:00:05.012Z,11.58
2023-04-14T09:02:36.598Z,11.57
2023-04-14T09:05:10.032Z,11.56
2023-04-14T09:07:42.752Z,11.60
2023-04-14T09:10:13.361Z,11.61
2023-04-14T09:12:49.372Z,11.61
2023-04-14T09:15:21.655Z,11.63
2023-04-14T09:17:54.533Z,11.68
2023-04-14T09:20:37.874Z,11.68
2023-04-14T09:23:12.390Z,11.70
2023-04-14T09:25:44.831Z,11.73
2023-04-14T09:28:17.143Z,11.74
2023-04-14T09:30:49.116Z,11.84
2023-04-14T09:33:24.564Z,11.90
2023-04-14T09:35:56.998Z,11.96
2023-04-14T09:38:39.154Z,12.05
2023-04-14T09:41:16.544Z,12.09
2023-04-14T09:43:48.431Z,12.09
2023-04-14T09:46:20.525Z,12.13
2023-04-14T09:48:57.090Z,12.17
2023-04-14T09:51:32.960Z,12.17
2023-04-14T09:54:06.751Z,12.18
2023-04-14T09:56:38.933Z,12.22
2023-04-14T09:59:11.382Z,12.25
2023-04-14T10:01:48.071Z,12.29
2023-04-14T10:04:26.635Z,12.28
2023-04-14T10:07:01.850Z,12.27
2023-04-14T10:09:39.134Z,12.29
2023-04-14T10:12:15.644Z,12.37
2023-04-14T10:14:48.236Z,12.44
2023-04-14T10:17:20.640Z,12.52
2023-04-14T10:19:51.551Z,12.57
2023-04-14T10:22:23.705Z,12.67
2023-04-14T10:24:56.219Z,12.75
2023-04-14T10:27:30.241Z,12.84
2023-04-14T10:30:02.827Z,12.97
2023-04-14T10:32:38.038Z,13.07
2023-04-14T10:35:13.286Z,13.19
2023-04-14T10:37:53.560Z,13.31
2023-04-14T10:40:27.121Z,13.42
2023-04-14T10:42:59.243Z,13.53
2023-04-14T10:45:31.287Z,13.65
2023-04-14T10:48:03.691Z,13.77
2023-04-14T10:50:49.019Z,13.91
2023-04-14T10:53:27.507Z,14.06
2023-04-14T10:56:05.983Z,14.19
2023-04-14T10:58:38.920Z,14.33
2023-04-14T11:01:32.375Z,14.47
2023-04-14T11:04:19.915Z,14.59
2023-04-14T11:06:54.476Z,14.69
2023-04-14T11:09:37.127Z,14.79
2023-04-14T11:12:26.061Z,14.95
2023-04-14T11:15:04.902Z,15.11
2023-04-14T11:17:40.496Z,15.19
2023-04-14T11:20:18.910Z,15.31
2023-04-14T11:22:52.524Z,15.42
2023-04-14T11:25:25.189Z,15.48
2023-04-14T11:27:57.535Z,15.51
2023-04-14T11:30:29.970Z,15.61
2023-04-14T11:33:02.091Z,15.70
2023-04-14T11:35:34.293Z,15.75
2023-04-14T11:38:10.422Z,15.76
2023-04-14T11:40:42.214Z,15.77
2023-04-14T11:43:14.868Z,15.85
2023-04-14T11:45:47.757Z,15.90
2023-04-14T11:48:21.610Z,15.95
2023-04-14T11:50:53.715Z,16.04
2023-04-14T11:53:26.568Z,16.16
2023-04-14T11:55:59.437Z,16.25
2023-04-14T11:58:32.026Z,16.35
2023-04-14T12:01:03.952Z,16.42
2023-04-14T12:03:39.261Z,16.46
2023-04-14T12:06:11.469Z,16.47
2023-04-14T12:08:50.383Z,16.51
2023-04-14T12:11:22.731Z,16.51
2023-04-14T12:13:56.543Z,16.52
2023-04-14T12:16:28.958Z,16.55
2023-04-14T12:19:02.010Z,16.55
2023-04-14T12:21:34.286Z,16.56
2023-04-14T12:24:06.382Z,16.58
2023-04-14T12:26:39.365Z,16.59
2023-04-14T12:29:13.624Z,16.64
2023-04-14T12:31:46.634Z,16.74
2023-04-14T12:34:28.017Z,16.81
2023-04-14T12:36:59.972Z,16.88
2023-04-14T12:39:31.882Z,16.97
2023-04-14T12:42:04.387Z,17.08
2023-04-14T12:44:36.533Z,17.24
2023-04-14T12:47:08.655Z,17.54
2023-04-14T12:49:40.874Z,17.69
2023-04-14T12:52:31.756Z,17.91
2023-04-14T12:55:04.819Z,18.19
2023-04-14T12:57:37.335Z,18.31
2023-04-14T13:00:11.700Z,18.46
2023-04-14T13:02:45.530Z,18.35
2023-04-14T13:05:19.818Z,18.35
2023-04-14T13:07:51.632Z,18.39
2023-04-14T13:10:23.544Z,18.46
2023-04-14T13:12:55.411Z,18.48
2023-04-14T13:16:12.345Z,18.36
2023-04-14T13:18:19.614Z,18.12
2023-04-14T13:20:56.908Z,17.91
2023-04-14T13:23:29.358Z,17.75
2023-04-14T13:26:01.529Z,17.63
2023-04-14T13:28:33.326Z,17.54
2023-04-14T13:31:06.954Z,17.53
2023-04-14T13:33:38.879Z,17.65
2023-04-14T13:36:11.264Z,17.75
2023-04-14T13:38:43.238Z,17.80
2023-04-14T13:41:16.025Z,17.91
2023-04-14T13:43:48.346Z,18.06
2023-04-14T13:46:20.398Z,18.17
2023-04-14T13:48:52.443Z,18.21
2023-04-14T13:51:25.480Z,18.20
2023-04-14T13:53:57.677Z,18.18
2023-04-14T13:56:29.699Z,18.13
2023-04-14T13:59:01.981Z,18.10
2023-04-14T14:01:34.296Z,18.11
2023-04-14T14:04:06.412Z,18.08
2023-04-14T14:06:38.291Z,18.04
2023-04-14T14:09:10.463Z,18.01
2023-04-14T14:11:44.334Z,17.96
2023-04-14T14:14:16.438Z,18.02
2023-04-14T14:16:48.444Z,17.96
2023-04-14T14:19:22.228Z,17.89
2023-04-14T14:21:54.113Z,17.90
2023-04-14T14:24:26.175Z,17.85
2023-04-14T14:26:58.216Z,17.87
2023-04-14T14:29:30.206Z,17.90
2023-04-14T14:32:02.117Z,17.94
2023-04-14T14:34:33.933Z,17.92
2023-04-14T14:37:06.468Z,17.93
2023-04-14T14:39:38.280Z,17.93
2023-04-14T14:42:10.279Z,18.04
2023-04-14T14:44:42.098Z,18.25
2023-04-14T14:47:14.250Z,18.40
2023-04-14T14:49:56.387Z,18.46
2023-04-14T14:52:34.429Z,18.49
2023-04-14T14:55:09.450Z,18.64
2023-04-14T14:57:42.004Z,18.77
2023-04-14T15:00:15.821Z,18.72
2023-04-14T15:02:47.855Z,18.53
2023-04-14T15:05:20.602Z,18.39
2023-04-14T15:07:52.579Z,18.41
2023-04-14T15:10:25.515Z,18.44
2023-04-14T15:12:57.569Z,18.47
2023-04-14T15:15:29.771Z,18.57
2023-04-14T15:18:01.786Z,18.68
2023-04-14T15:20:33.857Z,18.72
2023-04-14T15:23:07.168Z,18.56
2023-04-14T15:25:39.485Z,18.37
2023-04-14T15:28:12.962Z,18.19
2023-04-14T15:30:45.371Z,18.00
2023-04-14T15:33:19.300Z,17.85
2023-04-14T15:35:53.658Z,17.73
2023-04-14T15:38:30.352Z,17.62
2023-04-14T15:41:02.335Z,17.62
2023-04-14T15:43:34.131Z,17.57
2023-04-14T15:46:06.487Z,17.55
2023-04-14T15:48:38.605Z,17.51
2023-04-14T15:51:10.717Z,17.47
2023-04-14T15:53:42.554Z,17.41
2023-04-14T15:56:14.997Z,17.35
2023-04-14T15:58:47.223Z,17.30
2023-04-14T16:01:19.364Z,17.23
2023-04-14T16:03:52.703Z,17.19
2023-04-14T16:06:24.937Z,17.11
2023-04-14T16:08:56.873Z,17.03
2023-04-14T16:11:29.660Z,16.97
2023-04-14T16:14:02.013Z,16.88
2023-04-14T16:16:34.126Z,16.85
2023-04-14T16:19:06.119Z,16.79
2023-04-14T16:21:37.956Z,16.76
2023-04-14T16:24:10.075Z,16.68
2023-04-14T16:26:41.947Z,16.65
2023-04-14T16:29:13.787Z,16.63
2023-04-14T16:31:46.435Z,16.57
2023-04-14T16:34:20.447Z,16.51
2023-04-14T16:36:52.251Z,16.47
2023-04-14T16:39:24.144Z,16.43
2023-04-14T16:41:56.589Z,16.40
2023-04-14T16:44:28.429Z,16.36
2023-04-14T16:47:00.487Z,16.32
2023-04-14T16:49:32.912Z,16.30
2023-04-14T16:52:07.232Z,16.27
2023-04-14T16:54:40.716Z,16.22
2023-04-14T16:57:16.230Z,16.18
2023-04-14T16:59:51.501Z,16.14
2023-04-14T17:02:26.189Z,16.04
2023-04-14T17:04:59.694Z,16.09
2023-04-14T17:07:31.757Z,16.07
2023-04-14T17:10:13.010Z,16.04
2023-04-14T17:12:46.740Z,16.01
2023-04-14T17:15:19.261Z,15.99
2023-04-14T17:17:51.090Z,15.96
2023-04-14T17:20:23.074Z,15.92
2023-04-14T17:22:55.713Z,15.92
2023-04-14T17:25:28.660Z,15.87
2023-04-14T17:28:00.392Z,15.83
2023-04-14T17:30:33.818Z,15.80
2023-04-14T17:33:07.582Z,15.77
2023-04-14T17:35:40.485Z,15.74
2023-04-14T17:38:14.538Z,15.71
2023-04-14T17:40:47.871Z,15.69
2023-04-14T17:43:20.358Z,15.66
2023-04-14T17:45:52.459Z,15.63
2023-04-14T17:48:24.602Z,15.60
2023-04-14T17:50:57.196Z,15.60
2023-04-14T17:53:32.283Z,15.57
2023-04-14T17:56:04.469Z,15.55
2023-04-14T17:58:36.812Z,15.52
2023-04-14T18:01:09.625Z,15.51
2023-04-14T18:03:42.091Z,15.47
2023-04-14T18:06:15.422Z,15.47
2023-04-14T18:08:47.352Z,15.46
2023-04-14T18:11:20.525Z,15.40
2023-04-14T18:13:52.342Z,15.35
2023-04-14T18:16:24.570Z,15.33
2023-04-14T18:18:57.700Z,15.31
2023-04-14T18:21:29.844Z,15.29
2023-04-14T18:26:36.762Z,15.26
2023-04-14T18:29:08.760Z,15.23
2023-04-14T18:31:40.665Z,15.21
2023-04-14T18:34:14.047Z,15.13
2023-04-14T18:36:46.282Z,15.08
2023-04-14T18:39:19.223Z,15.03
2023-04-14T18:41:51.161Z,15.02
2023-04-14T18:44:23.219Z,15.00
2023-04-14T18:46:56.243Z,15.00
2023-04-14T18:49:28.368Z,14.97
2023-04-14T18:52:00.405Z,14.99
2023-04-14T18:54:33.705Z,14.91
2023-04-14T18:57:05.489Z,14.89
2023-04-14T18:59:37.865Z,15.47
2023-04-14T19:02:13.136Z,15.30
2023-04-14T19:04:45.411Z,15.22
2023-04-14T19:07:18.495Z,15.11
2023-04-14T19:09:51.039Z,15.02
2023-04-14T19:12:28.539Z,14.97
2023-04-14T19:15:02.628Z,14.92
2023-04-14T19:17:36.882Z,14.88
2023-04-14T19:20:10.687Z,14.85
2023-04-14T19:22:42.668Z,14.83
2023-04-14T19:25:15.522Z,14.79
2023-04-14T19:27:47.782Z,14.78
2023-04-14T19:30:19.844Z,14.80
2023-04-14T19:32:53.445Z,14.77
2023-04-14T19:35:25.592Z,14.77
2023-04-14T19:37:57.984Z,14.73
2023-04-14T19:40:31.929Z,14.71
2023-04-14T19:43:04.227Z,14.71
2023-04-14T19:45:35.196Z,14.70
2023-04-14T19:48:22.063Z,14.71
2023-04-14T19:50:56.495Z,14.73
2023-04-14T19:53:29.418Z,14.68
2023-04-14T19:56:02.120Z,14.65
2023-04-14T19:58:34.509Z,14.67
2023-04-14T20:01:06.698Z,14.63
2023-04-14T20:03:38.685Z,14.62
2023-04-14T20:06:30.670Z,14.64
2023-04-14T20:09:04.118Z,14.58
2023-04-14T20:11:37.178Z,14.56
2023-04-14T20:14:07.608Z,14.59
2023-04-14T20:16:39.720Z,14.53
2023-04-14T20:19:12.810Z,14.54
2023-04-14T20:21:44.878Z,14.50
2023-04-14T20:24:17.657Z,14.48
2023-04-14T20:26:50.104Z,14.45
2023-04-14T20:29:23.451Z,14.45
2023-04-14T20:31:56.323Z,14.44
2023-04-14T20:34:29.048Z,14.44
2023-04-14T20:37:00.972Z,14.42
2023-04-14T20:39:33.360Z,14.40
2023-04-14T20:42:05.648Z,14.40
2023-04-14T20:44:37.698Z,14.39
2023-04-14T20:47:09.720Z,14.34
2023-04-14T20:49:41.553Z,14.30
2023-04-14T20:52:13.412Z,14.28
2023-04-14T20:54:45.400Z,14.22
2023-04-14T20:57:18.133Z,14.18
2023-04-14T20:59:51.059Z,14.09
2023-04-14T21:02:23.560Z,14.07
2023-04-14T21:04:56.004Z,14.03
2023-04-14T21:07:28.271Z,14.00
2023-04-14T21:10:00.244Z,13.96
2023-04-14T21:12:35.465Z,13.92
2023-04-14T21:15:47.323Z,13.92
2023-04-14T21:18:02.492Z,13.88
2023-04-14T21:20:34.555Z,13.86
2023-04-14T21:23:09.534Z,13.86
2023-04-14T21:25:42.274Z,13.78
2023-04-14T21:28:12.804Z,13.74
2023-04-14T21:30:44.715Z,13.73
2023-04-14T21:33:16.772Z,13.63
2023-04-14T21:35:49.610Z,13.59
2023-04-14T21:38:23.905Z,13.57
2023-04-14T21:40:56.166Z,13.51
2023-04-14T21:43:28.231Z,13.50
2023-04-14T21:46:00.523Z,13.48
2023-04-14T21:48:32.729Z,13.47
2023-04-14T21:51:04.909Z,13.35
2023-04-14T21:53:37.774Z,13.33
2023-04-14T21:56:12.817Z,13.34
2023-04-14T21:58:45.818Z,13.37
2023-04-14T22:01:18.085Z,13.35
2023-04-14T22:03:50.438Z,13.33
2023-04-14T22:06:22.395Z,13.32
2023-04-14T22:08:54.349Z,13.31
2023-04-14T22:11:27.056Z,13.25
2023-04-14T22:13:59.634Z,13.22
2023-04-14T22:16:31.598Z,13.21
2023-04-14T22:19:04.599Z,13.13
2023-04-14T22:21:36.755Z,13.12
2023-04-14T22:24:10.087Z,13.14
2023-04-14T22:26:41.972Z,13.12
2023-04-14T22:29:13.760Z,13.04
2023-04-14T22:31:45.910Z,12.97
2023-04-14T22:34:17.999Z,13.02
2023-04-14T22:36:50.067Z,13.01
2023-04-14T22:39:22.107Z,12.96
2023-04-14T22:41:54.462Z,12.94
2023-04-14T22:44:26.414Z,12.81
2023-04-14T22:46:58.602Z,12.78
2023-04-14T22:49:31.317Z,12.83
2023-04-14T22:52:01.692Z,12.81
2023-04-14T22:54:33.757Z,12.84
2023-04-14T22:57:05.637Z,12.77
2023-04-14T22:59:37.741Z,12.71
2023-04-14T23:02:09.538Z,12.73
2023-04-14T23:04:42.185Z,12.79
2023-04-14T23:07:13.534Z,12.82
2023-04-14T23:09:45.755Z,12.79
2023-04-14T23:12:17.509Z,12.80
2023-04-14T23:14:49.338Z,12.86
2023-04-14T23:17:21.338Z,12.84
2023-04-14T23:19:54.033Z,12.84
2023-04-14T23:22:24.586Z,12.85
2023-04-14T23:24:56.662Z,12.78
2023-04-14T23:27:29.017Z,12.79
2023-04-14T23:30:00.825Z,12.77
2023-04-14T23:32:32.747Z,12.70
2023-04-14T23:35:04.914Z,12.72
2023-04-14T23:37:37.222Z,12.62
2023-04-14T23:40:11.286Z,12.59
2023-04-14T23:42:43.037Z,12.48
2023-04-14T23:45:14.916Z,12.41
2023-04-14T23:47:47.309Z,12.42
2023-04-14T23:50:19.418Z,12.44
2023-04-14T23:52:53.305Z,12.43
2023-04-14T23:55:25.487Z,12.43
